Terminal Aerodrome Forecast
Issued by NWS

Home | Current Version | Previous Version | Text Only | Print | Product List | Glossary On
Versions: 1 2 3 4 5 6 7 8 9 10 11 12 13 14 15 16 17
000
FTUS43 KMQT 162300
TAFCMX
TAF
KCMX 162336Z 1700/1724 09011G17KT 1/2SM SN OVC004
      TEMPO 1700/1701 1/4SM +SN
     FM170900 11011KT 1/4SM +SN OVC003
     FM171500 11007KT 2SM -SN OVC005
     FM171900 VRB03KT 5SM -SN OVC008
     FM172200 29009KT P6SM OVC010=

USA.gov is the U.S. government's official web portal to all federal, state and local government web resources and services.